Time;durP1;ratioP1;P1;durP2;ratioP2;P2;SDS_P1;SDS_P2;PMS_P1;PMS_P2;Temp;Humidity;BMP_temperature;BMP_pressure;BME280_temperature;BME280_humidity;BME280_pressure;Samples;Min_cycle;Max_cycle;Signal;HPM_P1;HPM_P2
2022/08/24 00:02:22;;;;;;;;;;;;;;;24.06;55.99;101504.78;4972405;28;5275;-65
2022/08/24 00:04:49;;;;;;;;;;;;;;;24.04;55.77;101501.81;4974928;28;4241;-65
2022/08/24 00:07:16;;;;;;;;;;;;;;;24.03;55.88;101506.09;4975275;28;4077;-65
2022/08/24 00:09:52;;;;;;;;;;;;;;;24.02;56.11;101504.59;4974907;28;4366;-65
2022/08/24 00:12:19;;;;;;;;;;;;;;;24.03;56.09;101506.09;4976158;28;4056;-65
2022/08/24 00:14:45;;;;;;;;;;;;;;;24.04;55.95;101507.59;4971300;28;4218;-65
2022/08/24 00:17:14;;;;;;;;;;;;;;;24.03;55.90;101506.09;4975428;28;4249;-65
2022/08/24 00:19:41;;;;;;;;;;;;;;;24.04;55.71;101507.59;4975545;28;5496;-66
2022/08/24 00:22:08;;;;;;;;;;;;;;;24.03;56.11;101515.53;4972009;28;5613;-66
2022/08/24 00:24:34;;;;;;;;;;;;;;;24.01;55.97;101503.88;4972633;28;4216;-65
2022/08/24 00:27:01;;;;;;;;;;;;;;;24.02;55.92;101510.38;4974516;28;4488;-65
2022/08/24 00:29:27;;;;;;;;;;;;;;;24.00;56.04;101511.03;4973752;28;4139;-65
2022/08/24 00:31:53;;;;;;;;;;;;;;;23.99;56.05;101506.69;4973020;28;4809;-65
2022/08/24 00:34:20;;;;;;;;;;;;;;;23.98;55.91;101510.22;4972085;28;5725;-65
2022/08/24 00:36:46;;;;;;;;;;;;;;;23.96;56.13;101507.22;4971538;28;4185;-65
2022/08/24 00:39:13;;;;;;;;;;;;;;;23.98;55.79;101510.97;4968841;28;4566;-65
2022/08/24 00:41:43;;;;;;;;;;;;;;;23.97;55.91;101502.94;4970498;28;4143;-65
2022/08/24 00:44:10;;;;;;;;;;;;;;;23.97;55.89;101497.16;4977526;28;5246;-65
2022/08/24 00:46:43;;;;;;;;;;;;;;;23.95;55.82;101503.59;4979613;28;4214;-65
2022/08/24 00:49:12;;;;;;;;;;;;;;;23.94;55.88;101502.13;4988017;28;4496;-64
2022/08/24 00:51:41;;;;;;;;;;;;;;;23.95;55.96;101502.88;4989841;28;5319;-65
2022/08/24 00:54:10;;;;;;;;;;;;;;;23.95;55.72;101508.66;4976554;28;5563;-65
2022/08/24 00:56:48;;;;;;;;;;;;;;;23.95;55.91;101511.53;4972357;28;5435;-65
2022/08/24 00:59:22;;;;;;;;;;;;;;;23.94;55.82;101504.28;4978027;28;4164;-65
2022/08/24 01:01:49;;;;;;;;;;;;;;;23.92;55.53;101504.19;4977285;28;5358;-65
2022/08/24 01:04:17;;;;;;;;;;;;;;;23.93;55.83;101508.56;4976736;28;4148;-65
2022/08/24 01:06:44;;;;;;;;;;;;;;;23.95;55.45;101502.88;4992619;28;4333;-65
2022/08/24 01:09:10;;;;;;;;;;;;;;;23.93;55.68;101511.47;4988140;28;4464;-65
2022/08/24 01:11:37;;;;;;;;;;;;;;;23.89;55.25;101503.38;4976158;28;4171;-65
2022/08/24 01:14:03;;;;;;;;;;;;;;;23.91;55.25;101505.59;4977579;28;4232;-65
2022/08/24 01:19:28;;;;;;;;;;;;;;;23.91;55.33;101505.59;4987953;28;4590;-66
2022/08/24 01:22:05;;;;;;;;;;;;;;;23.91;55.04;101502.69;4981647;28;4173;-65
2022/08/24 01:24:34;;;;;;;;;;;;;;;23.90;54.95;101504.09;4957042;28;4527;-65
2022/08/24 01:27:00;;;;;;;;;;;;;;;23.91;55.01;101509.22;4975162;28;6082;-65
2022/08/24 01:29:28;;;;;;;;;;;;;;;23.90;55.01;101509.88;4972852;28;4242;-65
2022/08/24 01:31:56;;;;;;;;;;;;;;;23.90;54.88;101501.22;4976597;28;4288;-65
2022/08/24 01:34:22;;;;;;;;;;;;;;;23.90;54.71;101507.00;4976000;28;4225;-66
2022/08/24 01:36:50;;;;;;;;;;;;;;;23.89;55.09;101508.38;4972511;28;4242;-65
2022/08/24 01:39:19;;;;;;;;;;;;;;;23.89;54.70;101508.38;4974302;28;4303;-65
2022/08/24 01:41:47;;;;;;;;;;;;;;;23.86;54.93;101509.72;4992458;28;5046;-65
2022/08/24 01:44:13;;;;;;;;;;;;;;;23.86;54.80;101509.72;4978550;28;5188;-65
2022/08/24 01:46:43;;;;;;;;;;;;;;;23.88;54.84;101509.81;4975490;28;4283;-65
2022/08/24 01:49:10;;;;;;;;;;;;;;;23.87;54.75;101511.19;4974172;28;4160;-65
2022/08/24 01:51:37;;;;;;;;;;;;;;;23.85;54.67;101508.25;4987642;28;4216;-65
2022/08/24 01:54:04;;;;;;;;;;;;;;;23.85;54.77;101514.03;4977081;28;4515;-65
2022/08/24 01:56:30;;;;;;;;;;;;;;;23.82;54.68;101513.94;4974042;28;5495;-65
2022/08/24 01:58:58;;;;;;;;;;;;;;;23.83;54.76;101523.34;4971200;28;4101;-64
2022/08/24 02:01:25;;;;;;;;;;;;;;;23.85;54.39;101519.81;4975973;28;4102;-64
2022/08/24 02:03:51;;;;;;;;;;;;;;;23.82;54.64;101511.03;4975300;28;4194;-64
2022/08/24 02:06:19;;;;;;;;;;;;;;;23.82;54.54;101513.94;4976930;28;4182;-65
2022/08/24 02:08:46;;;;;;;;;;;;;;;23.83;54.32;101523.34;4974676;28;4284;-64
2022/08/24 02:11:13;;;;;;;;;;;;;;;23.83;54.27;101518.31;4981400;28;4267;-64
2022/08/24 02:13:40;;;;;;;;;;;;;;;23.82;54.22;101528.41;4977056;28;5142;-64
2022/08/24 02:16:06;;;;;;;;;;;;;;;23.82;54.34;101528.41;4980364;28;4099;-64
2022/08/24 02:18:33;;;;;;;;;;;;;;;23.82;54.34;101525.50;4977417;28;5306;-64
2022/08/24 02:21:01;;;;;;;;;;;;;;;23.82;54.12;101528.41;4981709;28;6638;-64
2022/08/24 02:23:27;;;;;;;;;;;;;;;23.79;54.26;101528.97;4972844;28;4161;-64
2022/08/24 02:25:54;;;;;;;;;;;;;;;23.78;54.17;101531.09;4991564;28;4360;-64
2022/08/24 02:28:20;;;;;;;;;;;;;;;23.81;54.18;101521.09;4988284;28;4210;-64
2022/08/24 02:30:47;;;;;;;;;;;;;;;23.80;53.84;101516.75;4975836;28;4298;-64
2022/08/24 02:33:13;;;;;;;;;;;;;;;23.79;53.87;101523.91;4992613;28;4091;-64
2022/08/24 02:35:40;;;;;;;;;;;;;;;23.79;53.80;101529.69;4976660;28;5593;-64
2022/08/24 02:38:08;;;;;;;;;;;;;;;23.78;54.03;101528.22;4971615;28;4241;-64
2022/08/24 02:40:36;;;;;;;;;;;;;;;23.79;53.93;101526.78;4991217;28;4235;-64
2022/08/24 02:43:03;;;;;;;;;;;;;;;23.76;53.81;101531.00;4976826;28;5525;-64
2022/08/24 02:45:30;;;;;;;;;;;;;;;23.77;53.72;101523.06;4972998;28;4246;-64
2022/08/24 02:47:57;;;;;;;;;;;;;;;23.76;53.75;101519.44;4974506;28;4510;-64
2022/08/24 02:50:25;;;;;;;;;;;;;;;23.75;54.08;101512.16;4975977;28;4198;-63
2022/08/24 02:52:53;;;;;;;;;;;;;;;23.75;53.71;101523.00;4969438;28;4545;-63
2022/08/24 02:55:20;;;;;;;;;;;;;;;23.77;53.86;101523.06;4971288;28;4359;-64
2022/08/24 02:57:50;;;;;;;;;;;;;;;23.76;53.83;101507.88;4977615;28;4269;-64
2022/08/24 03:00:17;;;;;;;;;;;;;;;23.74;53.75;101507.78;4973077;28;4222;-63
2022/08/24 03:02:48;;;;;;;;;;;;;;;23.73;54.10;101514.97;4973850;28;5375;-64
2022/08/24 03:05:16;;;;;;;;;;;;;;;23.75;54.05;101517.22;4977279;28;4234;-64
2022/08/24 03:07:43;;;;;;;;;;;;;;;23.73;54.32;101514.97;4978841;28;4268;-64
2022/08/24 03:10:09;;;;;;;;;;;;;;;23.74;54.41;101521.47;4975419;28;5567;-64
2022/08/24 03:12:36;;;;;;;;;;;;;;;23.74;54.22;101512.81;4974816;28;4233;-64
2022/08/24 03:15:03;;;;;;;;;;;;;;;23.74;54.58;101515.69;4988269;28;4153;-64
2022/08/24 03:17:32;;;;;;;;;;;;;;;23.73;54.42;101514.97;4970694;28;4273;-65
2022/08/24 03:19:59;;;;;;;;;;;;;;;23.72;54.80;101515.63;4975841;28;4471;-64
2022/08/24 03:22:27;;;;;;;;;;;;;;;23.73;54.93;101514.19;4988926;28;5259;-64
2022/08/24 03:24:53;;;;;;;;;;;;;;;23.71;54.82;101511.97;4974731;28;4092;-65
2022/08/24 03:27:20;;;;;;;;;;;;;;;23.71;54.84;101511.97;4988945;28;4462;-67
2022/08/24 03:29:46;;;;;;;;;;;;;;;23.77;54.92;101520.19;4974954;28;4269;-62
2022/08/24 03:32:15;;;;;;;;;;;;;;;23.73;55.38;101529.41;4984659;28;4203;-65
2022/08/24 03:34:41;;;;;;;;;;;;;;;23.69;56.11;101523.47;4972251;28;4213;-64
2022/08/24 03:37:08;;;;;;;;;;;;;;;23.72;56.27;101527.91;4970783;28;4037;-65
2022/08/24 03:39:34;;;;;;;;;;;;;;;23.73;56.26;101529.41;4976625;28;4295;-65
2022/08/24 03:42:01;;;;;;;;;;;;;;;23.73;56.48;101532.31;4982497;28;4143;-65
2022/08/24 03:44:27;;;;;;;;;;;;;;;23.74;56.38;101530.94;4974956;28;4291;-65
2022/08/24 03:46:54;;;;;;;;;;;;;;;23.75;56.74;101528.78;4989497;28;4116;-65
2022/08/24 03:49:22;;;;;;;;;;;;;;;23.74;56.62;101518.59;4975352;28;4163;-64
2022/08/24 03:51:49;;;;;;;;;;;;;;;23.73;56.59;101522.88;4981096;28;4375;-64
2022/08/24 03:54:18;;;;;;;;;;;;;;;23.74;56.73;101528.03;4976007;28;5442;-64
2022/08/24 03:56:45;;;;;;;;;;;;;;;23.75;56.61;101523.72;4972951;28;4707;-64
2022/08/24 03:59:13;;;;;;;;;;;;;;;23.76;56.79;101519.44;4974184;28;4202;-65
2022/08/24 04:01:45;;;;;;;;;;;;;;;23.74;56.92;101530.94;4970299;28;4588;-64
2022/08/24 04:04:13;;;;;;;;;;;;;;;23.72;57.09;101536.59;4986352;28;5308;-64
2022/08/24 04:06:43;;;;;;;;;;;;;;;23.72;57.26;101533.69;4970848;28;4255;-64
2022/08/24 04:09:10;;;;;;;;;;;;;;;23.74;57.34;101539.59;4977273;28;4300;-64
2022/08/24 04:11:39;;;;;;;;;;;;;;;23.75;56.98;101541.06;4973817;28;4232;-64
2022/08/24 04:14:07;;;;;;;;;;;;;;;23.75;56.93;101543.22;4975927;28;4077;-64
2022/08/24 04:16:48;;;;;;;;;;;;;;;23.74;57.09;101539.59;4977810;28;5316;-63
2022/08/24 04:19:28;;;;;;;;;;;;;;;23.73;57.27;101543.88;4975888;28;4214;-64
2022/08/24 04:21:59;;;;;;;;;;;;;;;23.73;57.27;101538.09;4984731;28;4303;-64
2022/08/24 04:24:25;;;;;;;;;;;;;;;23.73;57.43;101549.66;4982150;28;4089;-63
2022/08/24 04:26:52;;;;;;;;;;;;;;;23.73;57.36;101543.13;4970494;28;4071;-64
2022/08/24 04:29:19;;;;;;;;;;;;;;;23.71;57.49;101552.47;4977089;28;4865;-64
2022/08/24 04:31:49;;;;;;;;;;;;;;;23.75;57.60;101549.75;4972337;28;4241;-64
2022/08/24 04:34:17;;;;;;;;;;;;;;;23.76;57.55;101554.16;4974998;28;4227;-64
2022/08/24 04:36:43;;;;;;;;;;;;;;;23.74;57.21;101545.38;4970622;28;4116;-64
2022/08/24 04:39:10;;;;;;;;;;;;;;;23.74;57.49;101551.16;4972362;28;4177;-66
2022/08/24 04:41:53;;;;;;;;;;;;;;;23.76;57.50;101554.16;4976411;28;4291;-62
2022/08/24 04:44:20;;;;;;;;;;;;;;;23.76;57.54;101553.41;4980463;28;4301;-64
2022/08/24 04:46:46;;;;;;;;;;;;;;;23.76;57.26;101559.94;4973480;28;4225;-61
2022/08/24 04:49:13;;;;;;;;;;;;;;;23.77;57.58;101557.78;4969305;28;4209;-63
2022/08/24 04:51:39;;;;;;;;;;;;;;;23.69;58.18;101561.06;4970403;28;4362;-64
2022/08/24 04:54:07;;;;;;;;;;;;;;;23.58;59.00;101565.63;4971377;28;4502;-60
2022/08/24 04:56:33;;;;;;;;;;;;;;;23.65;58.34;101572.44;4969673;28;5246;-60
2022/08/24 04:59:00;;;;;;;;;;;;;;;23.63;58.58;101567.28;4975584;28;4235;-62
2022/08/24 05:01:28;;;;;;;;;;;;;;;23.64;58.57;101565.16;4976481;28;5341;-62
2022/08/24 05:03:55;;;;;;;;;;;;;;;23.48;59.42;101567.31;4976983;28;5565;-62
2022/08/24 05:06:22;;;;;;;;;;;;;;;23.27;59.95;101568.53;4973761;28;4081;-62
2022/08/24 05:08:49;;;;;;;;;;;;;;;23.23;60.34;101577.78;4975565;28;4174;-62
2022/08/24 05:11:16;;;;;;;;;;;;;;;23.18;60.63;101567.44;4975861;28;4246;-61
2022/08/24 05:13:43;;;;;;;;;;;;;;;23.20;60.57;101576.97;4976689;28;4236;-61
2022/08/24 05:16:10;;;;;;;;;;;;;;;23.29;60.21;101574.41;4978609;28;4402;-62
2022/08/24 05:18:37;;;;;;;;;;;;;;;23.42;59.94;101583.00;4993071;28;4978;-62
2022/08/24 05:21:08;;;;;;;;;;;;;;;23.49;59.66;101586.91;4980148;28;4317;-62
2022/08/24 05:23:35;;;;;;;;;;;;;;;23.55;59.32;101589.34;4993847;28;4397;-63
2022/08/24 05:26:09;;;;;;;;;;;;;;;23.56;59.23;101593.72;4979350;28;4256;-63
2022/08/24 05:28:36;;;;;;;;;;;;;;;23.60;58.85;101599.69;4992925;28;4303;-62
2022/08/24 05:31:09;;;;;;;;;;;;;;;23.60;58.92;101593.91;4977690;28;4206;-63
2022/08/24 05:33:36;;;;;;;;;;;;;;;23.63;58.84;101598.34;4982367;28;4223;-62
2022/08/24 05:36:02;;;;;;;;;;;;;;;23.64;58.68;101594.09;4979960;28;4135;-61
2022/08/24 05:38:30;;;;;;;;;;;;;;;23.66;58.77;101602.81;4984011;28;4368;-62
2022/08/24 05:40:57;;;;;;;;;;;;;;;23.66;58.41;101597.03;4978590;28;5367;-62
2022/08/24 05:43:25;;;;;;;;;;;;;;;23.67;58.48;101598.53;4975763;28;4914;-62
2022/08/24 05:45:53;;;;;;;;;;;;;;;23.66;58.48;101602.81;4975730;28;4339;-61
2022/08/24 05:48:19;;;;;;;;;;;;;;;23.66;58.43;101602.81;4972309;28;4085;-66
2022/08/24 05:51:04;;;;;;;;;;;;;;;23.68;58.25;101611.59;4979342;28;4531;-62
2022/08/24 05:53:33;;;;;;;;;;;;;;;23.68;58.58;101607.97;4987340;28;5283;-62
2022/08/24 05:56:01;;;;;;;;;;;;;;;23.68;58.38;101610.84;4978005;28;6781;-62
2022/08/24 05:58:28;;;;;;;;;;;;;;;23.67;58.67;101598.53;4976925;28;4620;-62
2022/08/24 06:01:04;;;;;;;;;;;;;;;23.68;58.33;101605.06;4991725;28;6272;-62
2022/08/24 06:03:30;;;;;;;;;;;;;;;23.67;58.42;101609.38;4992667;28;4574;-63
2022/08/24 06:05:56;;;;;;;;;;;;;;;23.67;58.56;101607.22;4973221;28;4539;-62
2022/08/24 06:08:23;;;;;;;;;;;;;;;23.67;58.56;101615.91;4974445;28;4111;-62
2022/08/24 06:10:49;;;;;;;;;;;;;;;23.67;58.23;101618.78;4974820;28;4567;-62
2022/08/24 06:13:16;;;;;;;;;;;;;;;23.67;58.33;101620.94;4976568;28;5286;-62
2022/08/24 06:15:43;;;;;;;;;;;;;;;23.67;58.08;101615.16;4975634;28;5681;-62
2022/08/24 06:18:29;;;;;;;;;;;;;;;23.67;58.27;101615.91;4984821;28;4494;-62
2022/08/24 06:20:56;;;;;;;;;;;;;;;23.67;58.02;101615.91;4974469;28;4539;-62
2022/08/24 06:23:23;;;;;;;;;;;;;;;23.68;58.34;101623.16;4978072;28;4129;-62
2022/08/24 06:28:48;;;;;;;;;;;;;;;23.69;58.15;101630.44;4973274;28;4195;-62
2022/08/24 06:31:15;;;;;;;;;;;;;;;23.68;58.11;101628.94;4974452;28;4413;-62
2022/08/24 06:33:41;;;;;;;;;;;;;;;23.68;58.11;101617.38;4975634;28;4412;-62
2022/08/24 06:36:08;;;;;;;;;;;;;;;23.68;58.15;101623.16;4975114;28;4692;-63
2022/08/24 06:38:34;;;;;;;;;;;;;;;23.69;58.14;101616.00;4976331;28;4132;-62
2022/08/24 06:41:03;;;;;;;;;;;;;;;23.69;58.18;101623.91;4973062;28;4343;-62
2022/08/24 06:43:30;;;;;;;;;;;;;;;23.69;58.06;101624.66;4976837;28;5683;-62
2022/08/24 06:46:00;;;;;;;;;;;;;;;23.69;58.02;101633.34;4976404;28;4619;-62
2022/08/24 06:48:31;;;;;;;;;;;;;;;23.69;58.23;101636.22;4973792;28;4219;-62
2022/08/24 06:50:58;;;;;;;;;;;;;;;23.69;57.95;101636.22;4976326;28;4625;-62
2022/08/24 06:53:25;;;;;;;;;;;;;;;23.71;57.82;101639.22;4972082;28;4070;-62
2022/08/24 06:55:54;;;;;;;;;;;;;;;23.70;57.96;101636.97;4970988;28;4050;-66
2022/08/24 06:58:20;;;;;;;;;;;;;;;23.70;58.07;101640.59;4972612;28;4128;-62
2022/08/24 07:00:47;;;;;;;;;;;;;;;23.70;58.03;101646.38;4976993;28;4313;-63
2022/08/24 07:03:16;;;;;;;;;;;;;;;23.71;58.12;101650.78;4976799;28;3976;-62
2022/08/24 07:05:51;;;;;;;;;;;;;;;23.71;58.09;101650.00;4976817;28;5267;-63
2022/08/24 07:08:38;;;;;;;;;;;;;;;23.72;57.93;101658.03;4975423;28;4257;-62
2022/08/24 07:11:06;;;;;;;;;;;;;;;23.73;58.02;101659.56;4977032;28;4080;-61
2022/08/24 07:13:33;;;;;;;;;;;;;;;23.73;58.05;101653.75;4977774;28;4679;-61
2022/08/24 07:15:59;;;;;;;;;;;;;;;23.74;57.94;101655.28;4976804;28;4144;-61
2022/08/24 07:18:27;;;;;;;;;;;;;;;23.75;57.93;101656.75;4974433;28;4142;-60
2022/08/24 07:20:54;;;;;;;;;;;;;;;23.75;57.82;101653.88;4983592;28;5258;-61
2022/08/24 07:23:25;;;;;;;;;;;;;;;23.77;57.53;101653.22;4989679;28;5330;-61
2022/08/24 07:26:12;;;;;;;;;;;;;;;23.76;57.44;101652.47;4992622;28;4103;-61
2022/08/24 07:28:49;;;;;;;;;;;;;;;23.77;57.55;101659.75;4976322;28;4154;-61
2022/08/24 07:31:16;;;;;;;;;;;;;;;23.75;57.73;101650.97;4976296;28;4258;-61
2022/08/24 07:33:53;;;;;;;;;;;;;;;23.75;57.76;101653.88;4978086;28;5207;-61
2022/08/24 07:36:19;;;;;;;;;;;;;;;23.75;57.73;101650.97;4985194;28;4228;-62
2022/08/24 07:38:48;;;;;;;;;;;;;;;23.77;57.58;101664.78;4977410;28;4183;-61
2022/08/24 07:41:14;;;;;;;;;;;;;;;23.77;57.50;101668.41;4989403;28;4163;-61
2022/08/24 07:44:01;;;;;;;;;;;;;;;23.78;57.39;101669.19;4971390;28;4140;-61
2022/08/24 07:46:27;;;;;;;;;;;;;;;23.79;57.45;101668.50;4971743;28;4219;-61
2022/08/24 07:48:55;;;;;;;;;;;;;;;23.78;57.57;101672.06;4989262;28;5305;-61
2022/08/24 07:51:38;;;;;;;;;;;;;;;23.79;57.59;101673.56;4982309;28;4243;-61
2022/08/24 07:54:10;;;;;;;;;;;;;;;23.78;57.36;101675.72;4980423;28;4106;-62
2022/08/24 07:56:41;;;;;;;;;;;;;;;23.79;57.51;101668.50;4979109;28;4260;-61
2022/08/24 07:59:07;;;;;;;;;;;;;;;23.80;57.49;101675.81;4986943;28;4145;-61
2022/08/24 08:01:38;;;;;;;;;;;;;;;23.79;57.42;101668.50;4977501;28;5262;-62
2022/08/24 08:04:05;;;;;;;;;;;;;;;23.80;57.38;101675.81;4978687;28;4156;-61
2022/08/24 08:06:31;;;;;;;;;;;;;;;23.81;57.24;101676.53;4987434;28;4256;-61
2022/08/24 08:09:01;;;;;;;;;;;;;;;23.80;57.33;101672.16;4985601;28;4094;-61
2022/08/24 08:11:28;;;;;;;;;;;;;;;23.80;57.37;101675.81;4995930;28;4238;-61
2022/08/24 08:13:54;;;;;;;;;;;;;;;23.80;57.37;101678.69;4979206;28;4161;-61
2022/08/24 08:16:22;;;;;;;;;;;;;;;23.81;57.24;101677.28;4996106;28;4298;-61
2022/08/24 08:18:49;;;;;;;;;;;;;;;23.81;57.44;101677.28;4978644;28;4583;-61
2022/08/24 08:24:16;;;;;;;;;;;;;;;23.81;57.60;101683.06;4978118;28;4122;-61
2022/08/24 08:26:50;;;;;;;;;;;;;;;23.82;57.56;101675.91;4995061;28;4138;-61
2022/08/24 08:29:34;;;;;;;;;;;;;;;23.82;57.59;101670.13;4979451;28;5542;-61
2022/08/24 08:32:01;;;;;;;;;;;;;;;23.83;57.50;101662.19;4979659;28;4120;-61
2022/08/24 08:34:27;;;;;;;;;;;;;;;23.82;57.65;101673.00;4980036;28;4271;-61
2022/08/24 08:36:55;;;;;;;;;;;;;;;23.83;57.60;101671.59;4978324;28;4240;-62
2022/08/24 08:39:21;;;;;;;;;;;;;;;23.85;57.77;101676.00;4977328;28;5197;-61
2022/08/24 08:41:55;;;;;;;;;;;;;;;23.84;57.79;101669.44;4994612;28;4543;-61
2022/08/24 08:44:34;;;;;;;;;;;;;;;23.85;57.77;101676.72;4979927;28;4399;-61
2022/08/24 08:47:00;;;;;;;;;;;;;;;23.86;58.01;101677.47;4982834;28;5366;-61
2022/08/24 08:49:49;;;;;;;;;;;;;;;23.87;57.86;101676.81;4978407;28;4027;-63
2022/08/24 08:52:35;;;;;;;;;;;;;;;23.87;58.00;101684.75;4982842;28;4077;-61
2022/08/24 08:55:04;;;;;;;;;;;;;;;23.88;58.16;101674.69;4979087;28;4183;-61
2022/08/24 08:57:38;;;;;;;;;;;;;;;23.88;58.27;101680.47;4966867;28;5324;-62
2022/08/24 09:00:12;;;;;;;;;;;;;;;23.89;58.10;101681.94;4963259;28;4192;-62
2022/08/24 09:02:56;;;;;;;;;;;;;;;23.89;58.25;101676.16;4976682;28;4224;-61
2022/08/24 09:05:42;;;;;;;;;;;;;;;23.90;58.20;101677.66;4990408;28;4208;-61
2022/08/24 09:08:22;;;;;;;;;;;;;;;23.90;58.16;101683.44;4985264;28;4144;-61
2022/08/24 09:11:04;;;;;;;;;;;;;;;23.91;58.20;101679.13;4973105;28;5296;-61
2022/08/24 09:13:50;;;;;;;;;;;;;;;23.90;58.45;101684.19;4984166;28;5469;-61
2022/08/24 09:16:34;;;;;;;;;;;;;;;23.91;58.53;101679.88;4979710;28;4180;-61
2022/08/24 09:19:13;;;;;;;;;;;;;;;23.91;58.21;101673.34;4993144;28;4303;-61
2022/08/24 09:21:44;;;;;;;;;;;;;;;23.92;58.23;101674.84;4984962;28;4130;-61
2022/08/24 09:24:33;;;;;;;;;;;;;;;23.92;58.31;101674.84;4978576;28;4144;-61
2022/08/24 09:27:15;;;;;;;;;;;;;;;23.93;58.21;101676.34;4975303;28;4098;-62
2022/08/24 09:29:44;;;;;;;;;;;;;;;23.94;58.28;101677.84;4979284;28;4291;-62
2022/08/24 09:32:33;;;;;;;;;;;;;;;23.94;58.17;101672.06;4980700;28;5300;-61
2022/08/24 09:35:00;;;;;;;;;;;;;;;23.94;58.32;101677.84;4978982;28;4227;-61
2022/08/24 09:37:45;;;;;;;;;;;;;;;23.94;58.39;101680.75;4975238;28;4253;-61
2022/08/24 09:40:22;;;;;;;;;;;;;;;23.95;58.39;101682.22;4979114;28;4172;-61
2022/08/24 09:43:07;;;;;;;;;;;;;;;23.95;58.54;101673.53;4979327;28;5433;-61
2022/08/24 09:45:43;;;;;;;;;;;;;;;23.96;58.42;101686.59;4979562;28;4486;-61
2022/08/24 09:48:29;;;;;;;;;;;;;;;23.95;58.46;101680.06;4979013;28;4223;-61
2022/08/24 09:51:12;;;;;;;;;;;;;;;23.96;58.47;101675.00;4992592;28;4575;-61
2022/08/24 09:53:44;;;;;;;;;;;;;;;23.96;58.46;101672.88;4983406;28;5521;-61
2022/08/24 09:56:26;;;;;;;;;;;;;;;23.96;58.50;101675.78;4976208;28;4252;-62
2022/08/24 09:58:59;;;;;;;;;;;;;;;23.97;58.49;101662.06;4978618;28;4273;-63
2022/08/24 10:01:29;;;;;;;;;;;;;;;23.99;58.30;101670.84;4978621;28;4695;-61
2022/08/24 10:04:07;;;;;;;;;;;;;;;23.98;58.65;101661.41;4977341;28;5504;-61
2022/08/24 10:06:53;;;;;;;;;;;;;;;23.99;58.48;101674.47;4974315;28;4059;-61
2022/08/24 10:09:38;;;;;;;;;;;;;;;23.99;58.24;101668.69;4977485;28;4169;-62
2022/08/24 10:12:04;;;;;;;;;;;;;;;23.99;58.48;101667.94;4977705;28;4224;-62
2022/08/24 10:14:38;;;;;;;;;;;;;;;23.99;58.46;101667.94;4974678;28;4435;-61
2022/08/24 10:17:17;;;;;;;;;;;;;;;24.00;58.43;101669.41;4978869;28;4196;-61
2022/08/24 10:19:59;;;;;;;;;;;;;;;23.99;58.63;101662.91;4990428;28;4215;-61
2022/08/24 10:23:04;;;;;;;;;;;;;;;24.01;58.34;101659.34;4976951;28;4165;-62
2022/08/24 10:25:48;;;;;;;;;;;;;;;24.01;58.51;101651.41;4956102;28;4610;-61
2022/08/24 10:28:34;;;;;;;;;;;;;;;24.02;58.57;101649.25;4952271;28;4378;-61
2022/08/24 10:31:10;;;;;;;;;;;;;;;24.02;58.48;101655.03;4971461;28;5319;-61
2022/08/24 10:33:50;;;;;;;;;;;;;;;24.01;58.22;101654.31;4977564;28;4334;-61
2022/08/24 10:36:30;;;;;;;;;;;;;;;24.01;58.38;101653.56;4975336;28;4573;-61
2022/08/24 10:42:10;;;;;;;;;;;;;;;24.01;58.36;101647.78;4977062;28;4582;-61
2022/08/24 10:44:40;;;;;;;;;;;;;;;24.01;58.41;101647.78;4990545;28;6339;-61
2022/08/24 10:47:19;;;;;;;;;;;;;;;24.02;58.37;101643.47;4978056;28;4282;-61
2022/08/24 10:49:55;;;;;;;;;;;;;;;24.02;58.30;101637.69;4972095;28;5703;-61
2022/08/24 10:52:31;;;;;;;;;;;;;;;24.04;58.19;101637.78;4992977;28;4278;-60
2022/08/24 10:55:10;;;;;;;;;;;;;;;24.02;58.21;101641.31;4977124;28;5617;-61
2022/08/24 10:57:38;;;;;;;;;;;;;;;24.02;58.43;101640.59;4972568;28;5370;-61
2022/08/24 11:00:05;;;;;;;;;;;;;;;24.02;58.31;101641.31;4977060;28;4262;-61
2022/08/24 11:02:35;;;;;;;;;;;;;;;24.03;58.40;101634.16;4975283;28;4156;-61
2022/08/24 11:05:04;;;;;;;;;;;;;;;24.04;58.38;101646.47;4977113;28;4158;-61
2022/08/24 11:07:31;;;;;;;;;;;;;;;24.04;58.44;101641.41;4978461;28;4137;-60
2022/08/24 11:09:58;;;;;;;;;;;;;;;24.05;58.16;101636.38;4989820;28;4514;-61
2022/08/24 11:12:26;;;;;;;;;;;;;;;24.05;58.52;101630.56;4974906;28;5583;-61
2022/08/24 11:14:53;;;;;;;;;;;;;;;24.04;58.37;101632.72;4973217;28;4605;-61
2022/08/24 11:17:20;;;;;;;;;;;;;;;24.06;58.51;101626.28;4976984;28;5298;-60
2022/08/24 11:19:47;;;;;;;;;;;;;;;24.07;58.27;101629.94;4973974;28;4224;-61
2022/08/24 11:22:26;;;;;;;;;;;;;;;24.06;58.27;101632.09;4976652;28;4162;-60
2022/08/24 11:24:53;;;;;;;;;;;;;;;24.06;58.19;101632.09;4974451;28;4385;-61
2022/08/24 11:27:25;;;;;;;;;;;;;;;24.07;58.32;101633.56;4969146;28;4451;-61
2022/08/24 11:29:51;;;;;;;;;;;;;;;24.08;58.20;101628.53;4973751;28;4220;-60
2022/08/24 11:32:24;;;;;;;;;;;;;;;24.08;58.38;101617.72;4978070;28;4198;-61
2022/08/24 11:34:51;;;;;;;;;;;;;;;24.09;58.18;101624.97;4976391;28;4628;-61
2022/08/24 11:37:20;;;;;;;;;;;;;;;24.09;58.39;101630.75;4973724;28;4716;-61
2022/08/24 11:39:50;;;;;;;;;;;;;;;24.08;58.20;101617.72;4976824;28;5261;-61
2022/08/24 11:42:38;;;;;;;;;;;;;;;24.08;58.40;101623.50;4976782;28;4227;-61
2022/08/24 11:45:09;;;;;;;;;;;;;;;24.09;58.34;101619.19;4983057;28;4412;-61
2022/08/24 11:47:58;;;;;;;;;;;;;;;24.09;58.38;101627.88;4990692;28;4134;-61
2022/08/24 11:50:33;;;;;;;;;;;;;;;24.09;58.48;101615.56;4975247;28;5301;-61
2022/08/24 11:53:02;;;;;;;;;;;;;;;24.10;58.17;101632.25;4990587;28;4552;-61
2022/08/24 11:55:56;;;;;;;;;;;;;;;24.11;58.16;101612.75;4985585;28;4714;-61
2022/08/24 11:58:44;;;;;;;;;;;;;;;24.12;58.29;101617.13;4976254;28;5239;-61
2022/08/24 12:01:13;;;;;;;;;;;;;;;24.11;58.43;101604.81;4972351;28;4399;-61
2022/08/24 12:03:46;;;;;;;;;;;;;;;24.12;58.26;101615.00;4974749;28;4429;-61
2022/08/24 12:06:32;;;;;;;;;;;;;;;24.10;58.45;101609.13;4975444;28;4790;-61
2022/08/24 12:09:25;;;;;;;;;;;;;;;24.12;58.41;101614.22;4990069;28;5877;-61
2022/08/24 12:12:06;;;;;;;;;;;;;;;24.14;58.29;101612.16;4974904;28;4786;-61
2022/08/24 12:14:40;;;;;;;;;;;;;;;24.16;58.40;101605.72;4975187;28;4263;-61
2022/08/24 12:17:17;;;;;;;;;;;;;;;24.17;58.45;101618.81;4976145;28;4160;-61
2022/08/24 12:19:47;;;;;;;;;;;;;;;24.15;58.38;101607.88;4973694;28;4640;-61
2022/08/24 12:22:14;;;;;;;;;;;;;;;24.16;58.36;101600.69;4975963;28;5028;-61
2022/08/24 12:24:45;;;;;;;;;;;;;;;24.17;58.53;101607.97;4975591;28;4578;-62
2022/08/24 12:27:11;;;;;;;;;;;;;;;24.17;58.37;101607.97;4972152;28;4504;-61
2022/08/24 12:29:50;;;;;;;;;;;;;;;24.18;58.45;101609.44;4975804;28;4745;-61
2022/08/24 12:32:16;;;;;;;;;;;;;;;24.18;58.64;101606.56;4976051;28;4215;-61
2022/08/24 12:34:45;;;;;;;;;;;;;;;24.18;58.39;101602.91;4974586;28;4180;-61
2022/08/24 12:37:20;;;;;;;;;;;;;;;24.17;58.52;101610.13;4975816;28;4605;-61
2022/08/24 12:39:59;;;;;;;;;;;;;;;24.19;58.71;101613.06;4977215;28;4726;-61
2022/08/24 12:42:39;;;;;;;;;;;;;;;24.17;58.53;101602.19;4980928;28;4044;-61
2022/08/24 12:45:12;;;;;;;;;;;;;;;24.20;58.52;101600.84;4992043;28;4187;-61
2022/08/24 12:47:45;;;;;;;;;;;;;;;24.20;58.43;101605.91;4977963;28;4009;-61
2022/08/24 12:50:14;;;;;;;;;;;;;;;24.22;58.56;101595.16;4994558;28;4382;-61
2022/08/24 12:52:48;;;;;;;;;;;;;;;24.24;58.39;101594.50;4990890;28;4187;-62
2022/08/24 12:55:19;;;;;;;;;;;;;;;24.22;58.59;101592.25;4994839;28;4695;-61
2022/08/24 12:57:56;;;;;;;;;;;;;;;24.23;58.23;101587.97;4979398;28;4575;-61
2022/08/24 13:00:36;;;;;;;;;;;;;;;24.25;58.32;101585.13;4976994;28;4543;-61
2022/08/24 13:03:07;;;;;;;;;;;;;;;24.28;58.48;101588.13;4991518;28;4406;-60
2022/08/24 13:05:37;;;;;;;;;;;;;;;24.29;58.32;101583.84;4980097;28;4281;-60
2022/08/24 13:08:27;;;;;;;;;;;;;;;24.30;58.46;101585.31;4979318;28;5207;-61
2022/08/24 13:10:58;;;;;;;;;;;;;;;24.30;58.48;101588.22;4981966;28;5747;-60
2022/08/24 13:13:38;;;;;;;;;;;;;;;24.32;58.42;101579.63;4978665;28;5292;-61
2022/08/24 13:16:06;;;;;;;;;;;;;;;24.35;58.59;101598.53;4978102;28;4617;-61
2022/08/24 13:18:59;;;;;;;;;;;;;;;24.35;58.40;101589.88;4979828;28;5618;-61
2022/08/24 13:21:33;;;;;;;;;;;;;;;24.36;58.55;101583.41;4960397;28;5669;-61